Time;durP1;ratioP1;P1;durP2;ratioP2;P2;SDS_P1;SDS_P2;PMS_P1;PMS_P2;Temp;Humidity;BMP_temperature;BMP_pressure;BME280_temperature;BME280_humidity;BME280_pressure;Samples;Min_cycle;Max_cycle;Signal;HPM_P1;HPM_P2
2024/01/21 00:00:26;;;;;;;13.90;6.40;;;;;;;1.36;89.12;101225.05;103448;1254;96476;-74
2024/01/21 00:03:13;;;;;;;12.60;6.20;;;;;;;1.30;88.73;101227.85;103417;1257;109892;-74
2024/01/21 00:05:40;;;;;;;11.20;6.10;;;;;;;1.24;88.58;101232.14;103452;1256;96462;-75
2024/01/21 00:08:07;;;;;;;10.70;5.00;;;;;;;1.15;88.29;101236.09;103385;1257;109766;-74
2024/01/21 00:10:34;;;;;;;12.70;5.40;;;;;;;1.10;88.04;101236.14;103275;1254;138659;-74
2024/01/21 00:13:01;;;;;;;9.60;4.80;;;;;;;1.06;87.68;101237.05;103393;1253;96401;-74
2024/01/21 00:15:28;;;;;;;9.20;4.50;;;;;;;1.00;87.35;101237.96;103287;1257;137901;-73
2024/01/21 00:17:55;;;;;;;7.70;4.20;;;;;;;0.94;87.21;101243.49;103377;1256;96543;-74
2024/01/21 00:20:22;;;;;;;8.90;5.00;;;;;;;0.88;87.10;101249.34;103456;1257;111308;-73
2024/01/21 00:22:49;;;;;;;10.60;4.90;;;;;;;0.81;86.88;101255.34;103217;1255;137306;-73
2024/01/21 00:25:16;;;;;;;11.60;4.90;;;;;;;0.73;86.72;101258.56;103442;1253;96458;-74
2024/01/21 00:27:43;;;;;;;8.20;4.10;;;;;;;0.62;86.67;101264.80;103341;1254;137527;-74
2024/01/21 00:30:11;;;;;;;8.60;3.80;;;;;;;0.51;86.57;101269.50;103452;1254;96411;-73
2024/01/21 00:32:38;;;;;;;7.50;3.20;;;;;;;0.42;86.50;101269.29;103634;1254;110050;-73
2024/01/21 00:35:08;;;;;;;9.40;3.40;;;;;;;0.36;86.34;101277.34;103408;1253;139182;-72
2024/01/21 00:37:35;;;;;;;7.40;3.20;;;;;;;0.29;86.34;101277.50;103614;1254;97096;-72
2024/01/21 00:40:02;;;;;;;6.30;3.40;;;;;;;0.26;86.32;101283.23;103349;1254;137805;-72
2024/01/21 00:42:29;;;;;;;7.80;3.50;;;;;;;0.21;86.22;101287.74;103472;1254;96456;-73
2024/01/21 00:44:56;;;;;;;8.70;3.60;;;;;;;0.20;86.34;101295.58;103487;1257;109779;-71
2024/01/21 00:47:23;;;;;;;9.00;3.70;;;;;;;0.17;86.39;101297.16;103416;1254;137441;-70
2024/01/21 00:49:50;;;;;;;8.10;4.40;;;;;;;0.14;86.47;101301.04;103468;1254;96818;-72
2024/01/21 00:52:18;;;;;;;11.10;4.60;;;;;;;0.14;86.61;101303.23;103350;1254;137563;-72
2024/01/21 00:54:45;;;;;;;7.90;4.10;;;;;;;0.11;86.71;101307.96;103514;1253;96437;-72
2024/01/21 00:57:12;;;;;;;10.50;4.70;;;;;;;0.05;86.76;101312.08;103528;1255;110288;-72
2024/01/21 00:59:39;;;;;;;10.40;4.40;;;;;;;0.01;86.87;101314.54;103302;1254;138167;-73
2024/01/21 01:02:06;;;;;;;11.90;4.20;;;;;;;-0.02;87.05;101321.45;103468;1254;96981;-72
2024/01/21 01:04:33;;;;;;;11.50;4.70;;;;;;;-0.03;87.10;101325.02;103402;1254;138270;-72
2024/01/21 01:07:03;;;;;;;8.60;4.40;;;;;;;-0.02;87.46;101325.55;103520;1256;96322;-72
2024/01/21 01:09:29;;;;;;;9.80;5.30;;;;;;;0.01;87.46;101328.55;103342;1254;140462;-71
2024/01/21 01:11:56;;;;;;;11.40;5.20;;;;;;;0.02;87.51;101333.22;103475;1254;107358;-71
2024/01/21 01:14:23;;;;;;;11.30;5.50;;;;;;;0.02;87.53;101330.29;103405;1257;96861;-71
2024/01/21 01:16:50;;;;;;;11.40;5.90;;;;;;;0.01;87.50;101329.74;103640;1253;137342;-72
2024/01/21 01:19:17;;;;;;;10.50;6.60;;;;;;;-0.03;87.46;101331.69;103522;1254;96398;-71
2024/01/21 01:21:44;;;;;;;13.40;7.20;;;;;;;-0.09;87.35;101343.31;103392;1254;137715;-72
2024/01/21 01:24:11;;;;;;;12.20;6.60;;;;;;;-0.17;87.59;101342.77;103434;1253;107621;-72
2024/01/21 01:26:39;;;;;;;10.00;5.70;;;;;;;-0.24;87.56;101345.80;103490;1253;96513;-71
2024/01/21 01:29:06;;;;;;;10.40;5.70;;;;;;;-0.32;87.56;101352.22;103326;1253;138666;-71
2024/01/21 01:31:32;;;;;;;11.40;5.70;;;;;;;-0.42;87.60;101351.40;103512;1254;96456;-71
2024/01/21 01:33:59;;;;;;;9.50;5.70;;;;;;;-0.46;87.73;101359.51;103422;1254;138468;-71
2024/01/21 01:36:27;;;;;;;9.50;5.80;;;;;;;-0.49;87.57;101353.92;103513;1254;108455;-71
2024/01/21 01:38:54;;;;;;;8.20;5.10;;;;;;;-0.52;87.70;101360.52;103575;1254;96429;-71
2024/01/21 01:41:21;;;;;;;11.00;5.70;;;;;;;-0.53;87.71;101363.86;103354;1257;137427;-73
2024/01/21 01:43:48;;;;;;;9.20;5.60;;;;;;;-0.56;87.53;101365.47;103509;1257;96342;-70
2024/01/21 01:46:15;;;;;;;12.20;6.10;;;;;;;-0.62;87.51;101366.53;103391;1254;137575;-71
2024/01/21 01:48:42;;;;;;;10.30;6.10;;;;;;;-0.67;87.50;101369.10;103530;1254;108054;-72
2024/01/21 01:51:10;;;;;;;11.90;6.00;;;;;;;-0.73;87.38;101372.31;103545;1256;96455;-72
2024/01/21 01:53:37;;;;;;;12.50;5.40;;;;;;;-0.79;87.35;101379.13;103458;1254;138387;-71
2024/01/21 01:56:05;;;;;;;11.00;5.10;;;;;;;-0.85;87.54;101381.16;103554;1257;96520;-70
2024/01/21 01:58:35;;;;;;;11.30;4.70;;;;;;;-0.86;87.47;101385.73;103436;1254;138273;-70
2024/01/21 02:01:02;;;;;;;11.10;5.30;;;;;;;-0.87;87.47;101388.09;103485;1257;107389;-70
2024/01/21 02:03:30;;;;;;;10.50;5.10;;;;;;;-0.85;87.72;101389.89;103365;1254;138300;-70
2024/01/21 02:05:57;;;;;;;10.90;5.60;;;;;;;-0.81;87.69;101399.39;103515;1254;108557;-71
2024/01/21 02:08:24;;;;;;;11.20;6.00;;;;;;;-0.78;87.69;101404.44;103497;1254;96336;-71
2024/01/21 02:10:51;;;;;;;13.80;5.80;;;;;;;-0.79;87.65;101405.77;103433;1257;137787;-70
2024/01/21 02:13:18;;;;;;;12.70;6.10;;;;;;;-0.77;87.43;101407.54;103476;1254;107670;-71
2024/01/21 02:15:45;;;;;;;11.40;5.50;;;;;;;-0.78;87.31;101408.71;102675;1255;1002548;-71
2024/01/21 02:18:12;;;;;;;12.40;6.10;;;;;;;-0.84;87.28;101404.42;103583;1254;107784;-70
2024/01/21 02:20:39;;;;;;;14.10;5.70;;;;;;;-0.86;87.05;101411.52;103479;1254;96411;-71
2024/01/21 02:23:10;;;;;;;9.00;4.60;;;;;;;-0.91;87.24;101412.20;103269;1255;138316;-71
2024/01/21 02:25:37;;;;;;;8.10;4.30;;;;;;;-0.94;87.06;101415.00;103434;1256;107712;-71
2024/01/21 02:28:04;;;;;;;9.40;4.60;;;;;;;-0.97;87.11;101419.69;103397;1253;138482;-71
2024/01/21 02:30:31;;;;;;;10.30;5.10;;;;;;;-0.99;87.17;101423.73;103525;1257;107314;-71
2024/01/21 02:32:58;;;;;;;9.10;4.40;;;;;;;-1.01;87.18;101428.44;103500;1256;96337;-71
2024/01/21 02:35:24;;;;;;;11.30;4.70;;;;;;;-1.00;87.02;101432.73;103444;1254;138337;-72
2024/01/21 02:37:51;;;;;;;11.00;5.10;;;;;;;-1.02;87.03;101433.53;103557;1256;107396;-71
2024/01/21 02:40:18;;;;;;;9.60;5.10;;;;;;;-0.99;87.10;101441.61;103507;1253;138886;-71
2024/01/21 02:42:45;;;;;;;11.60;5.30;;;;;;;-1.00;87.07;101439.23;103649;1253;106474;-70
2024/01/21 02:45:12;;;;;;;9.20;5.00;;;;;;;-1.04;86.72;101437.05;103633;1253;96345;-70
2024/01/21 02:47:39;;;;;;;12.10;5.10;;;;;;;-1.07;86.57;101433.37;103458;1254;137203;-71
2024/01/21 02:50:08;;;;;;;8.30;4.40;;;;;;;-1.13;86.45;101430.89;103512;1253;107805;-71
2024/01/21 02:52:35;;;;;;;8.50;4.50;;;;;;;-1.20;86.30;101430.85;103491;1257;139235;-71
2024/01/21 02:55:01;;;;;;;9.90;5.30;;;;;;;-1.24;86.50;101438.27;103474;1254;108448;-71
2024/01/21 02:57:28;;;;;;;10.30;5.10;;;;;;;-1.24;86.55;101441.47;103409;1254;138400;-70
2024/01/21 02:59:55;;;;;;;11.60;4.60;;;;;;;-1.23;86.60;101448.17;103510;1253;110681;-71
